sensor_id;sensor_type;location;lat;lon;timestamp;P1;durP1;ratioP1;P2;durP2;ratioP2
71083;SDS011;58741;52.672;13.548;2023-04-15T00:00:25;9.07;;;5.60;;
71083;SDS011;58741;52.672;13.548;2023-04-15T00:02:50;7.95;;;5.35;;
71083;SDS011;58741;52.672;13.548;2023-04-15T00:05:17;10.45;;;5.80;;
71083;SDS011;58741;52.672;13.548;2023-04-15T00:07:42;9.35;;;5.35;;
71083;SDS011;58741;52.672;13.548;2023-04-15T00:10:09;7.53;;;4.65;;
71083;SDS011;58741;52.672;13.548;2023-04-15T00:12:35;10.63;;;6.40;;
71083;SDS011;58741;52.672;13.548;2023-04-15T00:15:01;9.68;;;5.65;;
71083;SDS011;58741;52.672;13.548;2023-04-15T00:17:26;6.10;;;4.88;;
71083;SDS011;58741;52.672;13.548;2023-04-15T00:19:52;10.90;;;6.28;;
71083;SDS011;58741;52.672;13.548;2023-04-15T00:22:18;10.77;;;6.10;;
71083;SDS011;58741;52.672;13.548;2023-04-15T00:24:44;10.65;;;6.03;;
71083;SDS011;58741;52.672;13.548;2023-04-15T00:27:09;7.50;;;5.63;;
71083;SDS011;58741;52.672;13.548;2023-04-15T00:29:35;8.85;;;5.82;;
71083;SDS011;58741;52.672;13.548;2023-04-15T00:32:01;9.90;;;6.65;;
71083;SDS011;58741;52.672;13.548;2023-04-15T00:34:27;11.98;;;7.05;;
71083;SDS011;58741;52.672;13.548;2023-04-15T00:36:53;10.57;;;6.55;;
71083;SDS011;58741;52.672;13.548;2023-04-15T00:39:19;11.38;;;5.80;;
71083;SDS011;58741;52.672;13.548;2023-04-15T00:41:45;12.57;;;5.93;;
71083;SDS011;58741;52.672;13.548;2023-04-15T00:44:11;10.93;;;6.03;;
71083;SDS011;58741;52.672;13.548;2023-04-15T00:46:37;9.88;;;5.18;;
71083;SDS011;58741;52.672;13.548;2023-04-15T00:49:04;12.15;;;6.55;;
71083;SDS011;58741;52.672;13.548;2023-04-15T00:51:32;10.40;;;6.40;;
71083;SDS011;58741;52.672;13.548;2023-04-15T00:54:00;13.18;;;6.47;;
71083;SDS011;58741;52.672;13.548;2023-04-15T00:56:28;7.85;;;5.25;;
71083;SDS011;58741;52.672;13.548;2023-04-15T00:58:54;12.52;;;6.80;;
71083;SDS011;58741;52.672;13.548;2023-04-15T01:01:20;8.65;;;5.00;;
71083;SDS011;58741;52.672;13.548;2023-04-15T01:03:49;16.30;;;7.20;;
71083;SDS011;58741;52.672;13.548;2023-04-15T01:06:15;11.70;;;6.55;;
71083;SDS011;58741;52.672;13.548;2023-04-15T01:08:43;11.98;;;6.85;;
71083;SDS011;58741;52.672;13.548;2023-04-15T01:11:09;10.88;;;6.22;;
71083;SDS011;58741;52.672;13.548;2023-04-15T01:13:38;13.77;;;6.65;;
71083;SDS011;58741;52.672;13.548;2023-04-15T01:16:04;11.95;;;5.93;;
71083;SDS011;58741;52.672;13.548;2023-04-15T01:18:31;12.88;;;6.43;;
71083;SDS011;58741;52.672;13.548;2023-04-15T01:20:59;12.18;;;6.40;;
71083;SDS011;58741;52.672;13.548;2023-04-15T01:23:26;10.77;;;6.43;;
71083;SDS011;58741;52.672;13.548;2023-04-15T01:25:52;14.00;;;7.28;;
71083;SDS011;58741;52.672;13.548;2023-04-15T01:28:18;12.85;;;7.32;;
71083;SDS011;58741;52.672;13.548;2023-04-15T01:30:44;12.38;;;6.95;;
71083;SDS011;58741;52.672;13.548;2023-04-15T01:33:10;15.52;;;7.10;;
71083;SDS011;58741;52.672;13.548;2023-04-15T01:35:36;9.82;;;5.55;;
71083;SDS011;58741;52.672;13.548;2023-04-15T01:38:04;15.40;;;7.47;;
71083;SDS011;58741;52.672;13.548;2023-04-15T01:40:34;11.57;;;6.32;;
71083;SDS011;58741;52.672;13.548;2023-04-15T01:43:02;9.50;;;5.88;;
71083;SDS011;58741;52.672;13.548;2023-04-15T01:45:28;14.48;;;6.32;;
71083;SDS011;58741;52.672;13.548;2023-04-15T01:47:54;11.35;;;6.88;;
71083;SDS011;58741;52.672;13.548;2023-04-15T01:50:19;11.00;;;6.47;;
71083;SDS011;58741;52.672;13.548;2023-04-15T01:52:46;12.57;;;5.90;;
71083;SDS011;58741;52.672;13.548;2023-04-15T01:55:12;10.68;;;6.00;;
71083;SDS011;58741;52.672;13.548;2023-04-15T01:57:38;11.10;;;5.93;;
71083;SDS011;58741;52.672;13.548;2023-04-15T02:00:05;11.13;;;5.90;;
71083;SDS011;58741;52.672;13.548;2023-04-15T02:02:40;10.55;;;5.72;;
71083;SDS011;58741;52.672;13.548;2023-04-15T02:05:06;12.73;;;7.05;;
71083;SDS011;58741;52.672;13.548;2023-04-15T02:07:31;10.77;;;6.47;;
71083;SDS011;58741;52.672;13.548;2023-04-15T02:09:57;9.07;;;5.55;;
71083;SDS011;58741;52.672;13.548;2023-04-15T02:12:23;11.50;;;6.50;;
71083;SDS011;58741;52.672;13.548;2023-04-15T02:14:48;10.73;;;5.80;;
71083;SDS011;58741;52.672;13.548;2023-04-15T02:17:14;11.45;;;5.85;;
71083;SDS011;58741;52.672;13.548;2023-04-15T02:19:41;11.73;;;5.63;;
71083;SDS011;58741;52.672;13.548;2023-04-15T02:22:07;10.52;;;5.18;;
71083;SDS011;58741;52.672;13.548;2023-04-15T02:24:33;10.90;;;7.00;;
71083;SDS011;58741;52.672;13.548;2023-04-15T02:26:59;9.57;;;5.35;;
71083;SDS011;58741;52.672;13.548;2023-04-15T02:29:25;12.82;;;6.03;;
71083;SDS011;58741;52.672;13.548;2023-04-15T02:31:51;10.18;;;5.80;;
71083;SDS011;58741;52.672;13.548;2023-04-15T02:34:17;9.52;;;6.07;;
71083;SDS011;58741;52.672;13.548;2023-04-15T02:36:43;8.55;;;4.63;;
71083;SDS011;58741;52.672;13.548;2023-04-15T02:39:11;12.70;;;6.32;;
71083;SDS011;58741;52.672;13.548;2023-04-15T02:41:38;10.32;;;5.97;;
71083;SDS011;58741;52.672;13.548;2023-04-15T02:44:04;9.05;;;5.75;;
71083;SDS011;58741;52.672;13.548;2023-04-15T02:46:31;10.88;;;6.50;;
71083;SDS011;58741;52.672;13.548;2023-04-15T02:48:56;11.77;;;5.60;;
71083;SDS011;58741;52.672;13.548;2023-04-15T02:51:23;9.43;;;5.00;;
71083;SDS011;58741;52.672;13.548;2023-04-15T02:53:49;8.93;;;5.05;;
71083;SDS011;58741;52.672;13.548;2023-04-15T02:56:15;10.82;;;5.53;;
71083;SDS011;58741;52.672;13.548;2023-04-15T02:58:42;9.95;;;6.35;;
71083;SDS011;58741;52.672;13.548;2023-04-15T03:01:08;9.70;;;5.63;;
71083;SDS011;58741;52.672;13.548;2023-04-15T03:03:34;12.13;;;6.03;;
71083;SDS011;58741;52.672;13.548;2023-04-15T03:06:00;9.93;;;5.22;;
71083;SDS011;58741;52.672;13.548;2023-04-15T03:08:26;9.20;;;5.32;;
71083;SDS011;58741;52.672;13.548;2023-04-15T03:10:54;7.50;;;5.32;;
71083;SDS011;58741;52.672;13.548;2023-04-15T03:13:24;12.77;;;5.93;;
71083;SDS011;58741;52.672;13.548;2023-04-15T03:15:51;11.18;;;6.43;;
71083;SDS011;58741;52.672;13.548;2023-04-15T03:18:16;11.32;;;6.45;;
71083;SDS011;58741;52.672;13.548;2023-04-15T03:20:42;9.40;;;5.45;;
71083;SDS011;58741;52.672;13.548;2023-04-15T03:23:08;7.35;;;4.60;;
71083;SDS011;58741;52.672;13.548;2023-04-15T03:25:34;7.72;;;5.47;;
71083;SDS011;58741;52.672;13.548;2023-04-15T03:28:02;8.85;;;5.30;;
71083;SDS011;58741;52.672;13.548;2023-04-15T03:30:28;9.50;;;5.63;;
71083;SDS011;58741;52.672;13.548;2023-04-15T03:32:54;12.52;;;6.10;;
71083;SDS011;58741;52.672;13.548;2023-04-15T03:35:19;10.32;;;5.80;;
71083;SDS011;58741;52.672;13.548;2023-04-15T03:37:45;8.82;;;5.68;;
71083;SDS011;58741;52.672;13.548;2023-04-15T03:40:13;9.60;;;4.93;;
71083;SDS011;58741;52.672;13.548;2023-04-15T03:42:38;9.18;;;5.35;;
71083;SDS011;58741;52.672;13.548;2023-04-15T03:45:04;7.53;;;4.75;;
71083;SDS011;58741;52.672;13.548;2023-04-15T03:47:31;8.82;;;5.30;;
71083;SDS011;58741;52.672;13.548;2023-04-15T03:49:57;9.65;;;5.18;;
71083;SDS011;58741;52.672;13.548;2023-04-15T03:52:22;9.05;;;5.88;;
71083;SDS011;58741;52.672;13.548;2023-04-15T03:54:48;7.90;;;4.75;;
71083;SDS011;58741;52.672;13.548;2023-04-15T03:57:13;8.00;;;5.15;;
71083;SDS011;58741;52.672;13.548;2023-04-15T03:59:39;10.18;;;5.75;;
71083;SDS011;58741;52.672;13.548;2023-04-15T04:02:05;8.02;;;5.07;;
71083;SDS011;58741;52.672;13.548;2023-04-15T04:04:30;12.48;;;5.05;;
71083;SDS011;58741;52.672;13.548;2023-04-15T04:06:56;6.18;;;4.35;;
71083;SDS011;58741;52.672;13.548;2023-04-15T04:09:21;9.05;;;5.15;;
71083;SDS011;58741;52.672;13.548;2023-04-15T04:11:47;5.90;;;4.32;;
71083;SDS011;58741;52.672;13.548;2023-04-15T04:14:14;12.55;;;6.15;;
71083;SDS011;58741;52.672;13.548;2023-04-15T04:16:39;6.82;;;4.50;;
71083;SDS011;58741;52.672;13.548;2023-04-15T04:19:05;12.00;;;5.97;;
71083;SDS011;58741;52.672;13.548;2023-04-15T04:21:31;11.05;;;6.10;;
71083;SDS011;58741;52.672;13.548;2023-04-15T04:23:58;6.93;;;4.30;;
71083;SDS011;58741;52.672;13.548;2023-04-15T04:26:23;11.30;;;5.10;;
71083;SDS011;58741;52.672;13.548;2023-04-15T04:28:49;14.75;;;5.85;;
71083;SDS011;58741;52.672;13.548;2023-04-15T04:31:15;8.23;;;4.97;;
71083;SDS011;58741;52.672;13.548;2023-04-15T04:33:41;6.47;;;4.63;;
71083;SDS011;58741;52.672;13.548;2023-04-15T04:36:06;7.25;;;4.53;;
71083;SDS011;58741;52.672;13.548;2023-04-15T04:38:32;8.25;;;5.20;;
71083;SDS011;58741;52.672;13.548;2023-04-15T04:40:57;8.20;;;4.72;;
71083;SDS011;58741;52.672;13.548;2023-04-15T04:43:23;7.65;;;5.05;;
71083;SDS011;58741;52.672;13.548;2023-04-15T04:45:48;8.70;;;4.45;;
71083;SDS011;58741;52.672;13.548;2023-04-15T04:48:14;7.20;;;4.57;;
71083;SDS011;58741;52.672;13.548;2023-04-15T04:50:40;7.38;;;4.75;;
71083;SDS011;58741;52.672;13.548;2023-04-15T04:53:06;5.95;;;4.15;;
71083;SDS011;58741;52.672;13.548;2023-04-15T04:55:32;11.45;;;4.45;;
71083;SDS011;58741;52.672;13.548;2023-04-15T04:58:01;5.57;;;3.50;;
71083;SDS011;58741;52.672;13.548;2023-04-15T05:00:27;7.28;;;4.80;;
71083;SDS011;58741;52.672;13.548;2023-04-15T05:02:53;7.70;;;4.80;;
71083;SDS011;58741;52.672;13.548;2023-04-15T05:05:18;8.10;;;4.97;;
71083;SDS011;58741;52.672;13.548;2023-04-15T05:07:44;8.00;;;4.15;;
71083;SDS011;58741;52.672;13.548;2023-04-15T05:10:10;9.93;;;4.95;;
71083;SDS011;58741;52.672;13.548;2023-04-15T05:12:35;7.15;;;4.20;;
71083;SDS011;58741;52.672;13.548;2023-04-15T05:15:02;6.90;;;4.63;;
71083;SDS011;58741;52.672;13.548;2023-04-15T05:17:29;11.52;;;5.75;;
71083;SDS011;58741;52.672;13.548;2023-04-15T05:19:55;7.82;;;4.75;;
71083;SDS011;58741;52.672;13.548;2023-04-15T05:22:21;6.85;;;4.15;;
71083;SDS011;58741;52.672;13.548;2023-04-15T05:24:47;4.70;;;3.50;;
71083;SDS011;58741;52.672;13.548;2023-04-15T05:27:12;7.72;;;3.75;;
71083;SDS011;58741;52.672;13.548;2023-04-15T05:29:38;6.25;;;4.30;;
71083;SDS011;58741;52.672;13.548;2023-04-15T05:32:03;8.10;;;4.47;;
71083;SDS011;58741;52.672;13.548;2023-04-15T05:34:29;7.50;;;3.72;;
71083;SDS011;58741;52.672;13.548;2023-04-15T05:36:55;5.80;;;4.35;;
71083;SDS011;58741;52.672;13.548;2023-04-15T05:39:21;4.65;;;3.17;;
71083;SDS011;58741;52.672;13.548;2023-04-15T05:41:46;4.28;;;3.60;;
71083;SDS011;58741;52.672;13.548;2023-04-15T05:44:12;7.03;;;3.92;;
71083;SDS011;58741;52.672;13.548;2023-04-15T05:46:37;4.90;;;3.80;;
71083;SDS011;58741;52.672;13.548;2023-04-15T05:49:03;5.03;;;3.67;;
71083;SDS011;58741;52.672;13.548;2023-04-15T05:51:28;7.47;;;3.83;;
71083;SDS011;58741;52.672;13.548;2023-04-15T05:53:54;5.30;;;3.53;;
71083;SDS011;58741;52.672;13.548;2023-04-15T05:56:19;6.00;;;3.47;;
71083;SDS011;58741;52.672;13.548;2023-04-15T05:58:46;3.38;;;2.75;;
71083;SDS011;58741;52.672;13.548;2023-04-15T06:01:11;4.60;;;3.38;;
71083;SDS011;58741;52.672;13.548;2023-04-15T06:03:37;4.95;;;3.63;;
71083;SDS011;58741;52.672;13.548;2023-04-15T06:06:03;6.32;;;3.47;;
71083;SDS011;58741;52.672;13.548;2023-04-15T06:08:29;7.28;;;3.55;;
71083;SDS011;58741;52.672;13.548;2023-04-15T06:10:54;3.50;;;2.65;;
71083;SDS011;58741;52.672;13.548;2023-04-15T06:13:20;2.90;;;2.22;;
71083;SDS011;58741;52.672;13.548;2023-04-15T06:15:46;3.72;;;2.70;;
71083;SDS011;58741;52.672;13.548;2023-04-15T06:18:11;7.00;;;3.03;;
71083;SDS011;58741;52.672;13.548;2023-04-15T06:20:37;8.40;;;3.72;;
71083;SDS011;58741;52.672;13.548;2023-04-15T06:23:02;4.47;;;3.45;;
71083;SDS011;58741;52.672;13.548;2023-04-15T06:25:28;5.35;;;3.17;;
71083;SDS011;58741;52.672;13.548;2023-04-15T06:27:54;5.75;;;2.92;;
71083;SDS011;58741;52.672;13.548;2023-04-15T06:30:19;3.50;;;2.55;;
71083;SDS011;58741;52.672;13.548;2023-04-15T06:32:45;3.42;;;2.10;;
71083;SDS011;58741;52.672;13.548;2023-04-15T06:35:11;3.08;;;2.53;;
71083;SDS011;58741;52.672;13.548;2023-04-15T06:37:36;4.40;;;2.75;;
71083;SDS011;58741;52.672;13.548;2023-04-15T06:40:02;2.70;;;2.22;;
71083;SDS011;58741;52.672;13.548;2023-04-15T06:42:29;3.10;;;2.80;;
71083;SDS011;58741;52.672;13.548;2023-04-15T06:44:55;3.10;;;2.50;;
71083;SDS011;58741;52.672;13.548;2023-04-15T06:47:20;5.43;;;3.08;;
71083;SDS011;58741;52.672;13.548;2023-04-15T06:49:46;3.17;;;2.55;;
71083;SDS011;58741;52.672;13.548;2023-04-15T06:52:12;3.90;;;3.03;;
71083;SDS011;58741;52.672;13.548;2023-04-15T06:54:37;4.78;;;3.33;;
71083;SDS011;58741;52.672;13.548;2023-04-15T06:57:03;5.93;;;2.67;;
71083;SDS011;58741;52.672;13.548;2023-04-15T06:59:28;5.00;;;3.28;;
71083;SDS011;58741;52.672;13.548;2023-04-15T07:01:54;5.90;;;3.33;;
71083;SDS011;58741;52.672;13.548;2023-04-15T07:04:19;4.55;;;3.53;;
71083;SDS011;58741;52.672;13.548;2023-04-15T07:06:45;6.53;;;3.10;;
71083;SDS011;58741;52.672;13.548;2023-04-15T07:09:11;4.43;;;3.03;;
71083;SDS011;58741;52.672;13.548;2023-04-15T07:11:36;6.60;;;2.90;;
71083;SDS011;58741;52.672;13.548;2023-04-15T07:14:02;3.72;;;2.80;;
71083;SDS011;58741;52.672;13.548;2023-04-15T07:16:28;4.57;;;2.97;;
71083;SDS011;58741;52.672;13.548;2023-04-15T07:18:53;5.00;;;3.45;;
71083;SDS011;58741;52.672;13.548;2023-04-15T07:21:19;6.18;;;2.40;;
71083;SDS011;58741;52.672;13.548;2023-04-15T07:23:45;5.28;;;3.40;;
71083;SDS011;58741;52.672;13.548;2023-04-15T07:26:11;5.78;;;2.88;;
71083;SDS011;58741;52.672;13.548;2023-04-15T07:28:37;6.00;;;3.33;;
71083;SDS011;58741;52.672;13.548;2023-04-15T07:31:02;4.97;;;3.53;;
71083;SDS011;58741;52.672;13.548;2023-04-15T07:33:28;5.32;;;3.20;;
71083;SDS011;58741;52.672;13.548;2023-04-15T07:35:53;3.22;;;2.80;;
71083;SDS011;58741;52.672;13.548;2023-04-15T07:38:19;4.53;;;2.92;;
71083;SDS011;58741;52.672;13.548;2023-04-15T07:40:46;5.22;;;3.53;;
71083;SDS011;58741;52.672;13.548;2023-04-15T07:43:12;4.22;;;2.72;;
71083;SDS011;58741;52.672;13.548;2023-04-15T07:45:38;8.60;;;3.97;;
71083;SDS011;58741;52.672;13.548;2023-04-15T07:48:03;5.45;;;3.30;;
71083;SDS011;58741;52.672;13.548;2023-04-15T07:50:30;4.47;;;2.92;;
71083;SDS011;58741;52.672;13.548;2023-04-15T07:52:56;5.07;;;2.97;;
71083;SDS011;58741;52.672;13.548;2023-04-15T07:55:22;4.72;;;3.53;;
71083;SDS011;58741;52.672;13.548;2023-04-15T07:57:48;4.07;;;3.05;;
71083;SDS011;58741;52.672;13.548;2023-04-15T08:00:14;4.75;;;3.35;;
71083;SDS011;58741;52.672;13.548;2023-04-15T08:02:41;4.13;;;3.20;;
71083;SDS011;58741;52.672;13.548;2023-04-15T08:05:07;6.20;;;3.22;;
71083;SDS011;58741;52.672;13.548;2023-04-15T08:07:34;6.05;;;3.55;;
71083;SDS011;58741;52.672;13.548;2023-04-15T08:10:01;5.35;;;4.13;;
71083;SDS011;58741;52.672;13.548;2023-04-15T08:12:27;5.68;;;3.45;;
71083;SDS011;58741;52.672;13.548;2023-04-15T08:14:53;5.13;;;3.67;;
71083;SDS011;58741;52.672;13.548;2023-04-15T08:17:19;3.50;;;2.78;;
71083;SDS011;58741;52.672;13.548;2023-04-15T08:19:44;4.50;;;3.22;;
71083;SDS011;58741;52.672;13.548;2023-04-15T08:22:12;6.22;;;3.08;;
71083;SDS011;58741;52.672;13.548;2023-04-15T08:24:38;5.38;;;3.72;;
71083;SDS011;58741;52.672;13.548;2023-04-15T08:27:03;5.13;;;3.28;;
71083;SDS011;58741;52.672;13.548;2023-04-15T08:29:30;8.00;;;3.67;;
71083;SDS011;58741;52.672;13.548;2023-04-15T08:31:57;6.07;;;3.40;;
71083;SDS011;58741;52.672;13.548;2023-04-15T08:34:24;6.32;;;3.78;;
71083;SDS011;58741;52.672;13.548;2023-04-15T08:36:50;7.93;;;2.97;;
71083;SDS011;58741;52.672;13.548;2023-04-15T08:39:16;6.90;;;3.15;;
71083;SDS011;58741;52.672;13.548;2023-04-15T08:41:46;4.65;;;2.85;;
71083;SDS011;58741;52.672;13.548;2023-04-15T08:44:25;6.38;;;3.13;;
71083;SDS011;58741;52.672;13.548;2023-04-15T08:46:59;5.03;;;3.13;;
71083;SDS011;58741;52.672;13.548;2023-04-15T08:49:26;5.60;;;3.20;;
71083;SDS011;58741;52.672;13.548;2023-04-15T08:51:53;6.15;;;3.55;;
71083;SDS011;58741;52.672;13.548;2023-04-15T08:54:20;5.07;;;3.55;;
71083;SDS011;58741;52.672;13.548;2023-04-15T08:56:46;10.88;;;3.90;;
71083;SDS011;58741;52.672;13.548;2023-04-15T08:59:13;5.07;;;3.65;;
71083;SDS011;58741;52.672;13.548;2023-04-15T09:01:40;5.07;;;3.15;;
71083;SDS011;58741;52.672;13.548;2023-04-15T09:04:06;5.50;;;2.92;;
71083;SDS011;58741;52.672;13.548;2023-04-15T09:06:32;7.70;;;4.57;;
71083;SDS011;58741;52.672;13.548;2023-04-15T09:08:58;6.10;;;3.85;;
71083;SDS011;58741;52.672;13.548;2023-04-15T09:11:23;6.35;;;3.50;;
71083;SDS011;58741;52.672;13.548;2023-04-15T09:13:49;6.25;;;4.00;;
71083;SDS011;58741;52.672;13.548;2023-04-15T09:16:15;7.63;;;3.83;;
71083;SDS011;58741;52.672;13.548;2023-04-15T09:18:42;5.63;;;3.53;;
71083;SDS011;58741;52.672;13.548;2023-04-15T09:21:12;6.43;;;3.85;;
71083;SDS011;58741;52.672;13.548;2023-04-15T09:23:40;5.18;;;3.38;;
71083;SDS011;58741;52.672;13.548;2023-04-15T09:26:18;3.78;;;3.10;;
71083;SDS011;58741;52.672;13.548;2023-04-15T09:28:43;3.67;;;2.60;;
71083;SDS011;58741;52.672;13.548;2023-04-15T09:31:09;4.60;;;3.55;;
71083;SDS011;58741;52.672;13.548;2023-04-15T09:33:35;4.45;;;2.55;;
71083;SDS011;58741;52.672;13.548;2023-04-15T09:36:17;4.05;;;2.53;;
71083;SDS011;58741;52.672;13.548;2023-04-15T09:38:59;4.45;;;2.72;;
71083;SDS011;58741;52.672;13.548;2023-04-15T09:41:25;4.18;;;3.00;;
71083;SDS011;58741;52.672;13.548;2023-04-15T09:43:51;4.15;;;3.10;;
71083;SDS011;58741;52.672;13.548;2023-04-15T09:46:17;7.75;;;4.30;;
71083;SDS011;58741;52.672;13.548;2023-04-15T09:48:43;5.35;;;3.00;;
71083;SDS011;58741;52.672;13.548;2023-04-15T09:51:08;3.92;;;3.15;;
71083;SDS011;58741;52.672;13.548;2023-04-15T09:53:35;5.43;;;3.35;;
71083;SDS011;58741;52.672;13.548;2023-04-15T09:56:02;5.03;;;3.13;;
71083;SDS011;58741;52.672;13.548;2023-04-15T09:58:32;4.00;;;2.80;;
71083;SDS011;58741;52.672;13.548;2023-04-15T10:00:59;6.05;;;2.58;;
71083;SDS011;58741;52.672;13.548;2023-04-15T10:03:33;5.15;;;3.60;;
71083;SDS011;58741;52.672;13.548;2023-04-15T10:06:00;5.82;;;3.35;;
71083;SDS011;58741;52.672;13.548;2023-04-15T10:08:31;4.55;;;3.08;;
71083;SDS011;58741;52.672;13.548;2023-04-15T10:10:57;3.78;;;3.05;;
71083;SDS011;58741;52.672;13.548;2023-04-15T10:13:26;4.35;;;2.85;;
71083;SDS011;58741;52.672;13.548;2023-04-15T10:18:27;5.40;;;3.53;;
71083;SDS011;58741;52.672;13.548;2023-04-15T10:20:53;5.60;;;3.15;;
71083;SDS011;58741;52.672;13.548;2023-04-15T10:23:19;3.65;;;2.90;;
71083;SDS011;58741;52.672;13.548;2023-04-15T10:25:46;4.47;;;2.78;;
71083;SDS011;58741;52.672;13.548;2023-04-15T10:28:15;5.80;;;3.35;;
71083;SDS011;58741;52.672;13.548;2023-04-15T10:30:41;5.13;;;2.95;;
71083;SDS011;58741;52.672;13.548;2023-04-15T10:33:07;5.85;;;3.15;;
71083;SDS011;58741;52.672;13.548;2023-04-15T10:35:35;4.38;;;2.95;;
71083;SDS011;58741;52.672;13.548;2023-04-15T10:38:01;5.80;;;2.83;;
71083;SDS011;58741;52.672;13.548;2023-04-15T10:40:47;5.95;;;2.83;;
71083;SDS011;58741;52.672;13.548;2023-04-15T10:43:23;4.10;;;2.92;;
71083;SDS011;58741;52.672;13.548;2023-04-15T10:45:52;4.40;;;3.13;;
71083;SDS011;58741;52.672;13.548;2023-04-15T10:48:18;4.20;;;3.15;;
71083;SDS011;58741;52.672;13.548;2023-04-15T10:50:54;4.22;;;2.92;;
71083;SDS011;58741;52.672;13.548;2023-04-15T10:53:28;6.28;;;3.42;;
71083;SDS011;58741;52.672;13.548;2023-04-15T10:55:56;3.88;;;2.50;;
71083;SDS011;58741;52.672;13.548;2023-04-15T10:58:23;3.58;;;2.88;;
71083;SDS011;58741;52.672;13.548;2023-04-15T11:00:50;4.53;;;2.47;;
71083;SDS011;58741;52.672;13.548;2023-04-15T11:03:20;4.13;;;2.67;;
71083;SDS011;58741;52.672;13.548;2023-04-15T11:06:01;2.97;;;2.47;;
71083;SDS011;58741;52.672;13.548;2023-04-15T11:11:22;4.22;;;2.80;;
71083;SDS011;58741;52.672;13.548;2023-04-15T11:14:13;5.90;;;3.30;;
71083;SDS011;58741;52.672;13.548;2023-04-15T11:16:43;4.88;;;3.10;;
71083;SDS011;58741;52.672;13.548;2023-04-15T11:19:09;5.38;;;3.22;;
71083;SDS011;58741;52.672;13.548;2023-04-15T11:21:35;4.28;;;2.65;;
71083;SDS011;58741;52.672;13.548;2023-04-15T11:24:00;5.55;;;2.58;;
71083;SDS011;58741;52.672;13.548;2023-04-15T11:26:26;3.20;;;2.42;;
71083;SDS011;58741;52.672;13.548;2023-04-15T11:28:51;3.15;;;2.50;;
71083;SDS011;58741;52.672;13.548;2023-04-15T11:31:18;4.32;;;2.83;;
71083;SDS011;58741;52.672;13.548;2023-04-15T11:33:44;5.75;;;3.47;;
71083;SDS011;58741;52.672;13.548;2023-04-15T11:36:27;7.05;;;3.40;;
71083;SDS011;58741;52.672;13.548;2023-04-15T11:38:54;5.20;;;3.22;;
71083;SDS011;58741;52.672;13.548;2023-04-15T11:41:21;3.97;;;3.00;;
71083;SDS011;58741;52.672;13.548;2023-04-15T11:43:48;4.35;;;2.67;;
71083;SDS011;58741;52.672;13.548;2023-04-15T11:46:14;5.07;;;3.20;;
71083;SDS011;58741;52.672;13.548;2023-04-15T11:48:41;3.97;;;2.50;;
71083;SDS011;58741;52.672;13.548;2023-04-15T11:51:08;9.85;;;3.20;;
71083;SDS011;58741;52.672;13.548;2023-04-15T11:53:48;4.47;;;3.03;;
71083;SDS011;58741;52.672;13.548;2023-04-15T11:58:47;4.63;;;2.83;;
71083;SDS011;58741;52.672;13.548;2023-04-15T12:01:17;5.10;;;2.97;;
71083;SDS011;58741;52.672;13.548;2023-04-15T12:03:46;5.68;;;3.45;;
71083;SDS011;58741;52.672;13.548;2023-04-15T12:11:51;5.82;;;3.30;;
71083;SDS011;58741;52.672;13.548;2023-04-15T12:16:57;3.33;;;2.40;;
71083;SDS011;58741;52.672;13.548;2023-04-15T12:19:27;2.28;;;2.00;;
71083;SDS011;58741;52.672;13.548;2023-04-15T12:21:58;3.05;;;2.20;;
71083;SDS011;58741;52.672;13.548;2023-04-15T12:24:25;8.77;;;2.70;;
71083;SDS011;58741;52.672;13.548;2023-04-15T12:26:52;4.63;;;2.70;;
71083;SDS011;58741;52.672;13.548;2023-04-15T12:29:24;5.18;;;2.50;;
71083;SDS011;58741;52.672;13.548;2023-04-15T12:31:53;3.17;;;2.45;;
71083;SDS011;58741;52.672;13.548;2023-04-15T12:34:26;2.50;;;2.30;;
71083;SDS011;58741;52.672;13.548;2023-04-15T12:36:54;4.70;;;2.72;;
71083;SDS011;58741;52.672;13.548;2023-04-15T12:39:21;3.53;;;2.40;;
71083;SDS011;58741;52.672;13.548;2023-04-15T12:41:48;5.15;;;2.72;;
71083;SDS011;58741;52.672;13.548;2023-04-15T12:44:13;2.85;;;1.70;;
71083;SDS011;58741;52.672;13.548;2023-04-15T12:46:39;2.72;;;1.98;;
71083;SDS011;58741;52.672;13.548;2023-04-15T12:49:05;6.13;;;2.42;;
71083;SDS011;58741;52.672;13.548;2023-04-15T12:51:32;4.45;;;2.55;;
71083;SDS011;58741;52.672;13.548;2023-04-15T12:53:57;4.40;;;2.33;;
71083;SDS011;58741;52.672;13.548;2023-04-15T12:56:23;4.45;;;2.55;;
71083;SDS011;58741;52.672;13.548;2023-04-15T12:58:48;3.10;;;2.40;;
71083;SDS011;58741;52.672;13.548;2023-04-15T13:01:14;3.15;;;2.13;;
71083;SDS011;58741;52.672;13.548;2023-04-15T13:03:39;4.65;;;2.47;;
71083;SDS011;58741;52.672;13.548;2023-04-15T13:06:05;3.70;;;2.65;;
71083;SDS011;58741;52.672;13.548;2023-04-15T13:08:31;4.07;;;2.60;;
71083;SDS011;58741;52.672;13.548;2023-04-15T13:10:57;3.92;;;2.47;;
71083;SDS011;58741;52.672;13.548;2023-04-15T13:13:22;3.28;;;2.20;;
71083;SDS011;58741;52.672;13.548;2023-04-15T13:15:48;2.65;;;2.15;;
71083;SDS011;58741;52.672;13.548;2023-04-15T13:18:14;1.77;;;1.65;;
71083;SDS011;58741;52.672;13.548;2023-04-15T13:20:40;2.67;;;2.47;;
71083;SDS011;58741;52.672;13.548;2023-04-15T13:23:06;2.53;;;2.20;;
71083;SDS011;58741;52.672;13.548;2023-04-15T13:25:31;4.20;;;2.03;;
71083;SDS011;58741;52.672;13.548;2023-04-15T13:27:57;3.65;;;2.55;;
71083;SDS011;58741;52.672;13.548;2023-04-15T13:30:22;2.83;;;2.00;;
71083;SDS011;58741;52.672;13.548;2023-04-15T13:32:48;2.40;;;1.75;;
71083;SDS011;58741;52.672;13.548;2023-04-15T13:35:15;3.15;;;2.53;;
71083;SDS011;58741;52.672;13.548;2023-04-15T13:37:40;2.95;;;2.03;;
71083;SDS011;58741;52.672;13.548;2023-04-15T13:40:06;4.53;;;2.60;;
71083;SDS011;58741;52.672;13.548;2023-04-15T13:42:32;4.65;;;2.50;;
71083;SDS011;58741;52.672;13.548;2023-04-15T13:44:58;3.53;;;2.10;;
71083;SDS011;58741;52.672;13.548;2023-04-15T13:47:23;2.00;;;1.73;;
71083;SDS011;58741;52.672;13.548;2023-04-15T13:49:49;2.67;;;1.77;;
71083;SDS011;58741;52.672;13.548;2023-04-15T13:52:16;2.10;;;1.90;;
71083;SDS011;58741;52.672;13.548;2023-04-15T13:54:42;1.55;;;1.33;;
71083;SDS011;58741;52.672;13.548;2023-04-15T13:57:07;2.72;;;1.95;;
71083;SDS011;58741;52.672;13.548;2023-04-15T13:59:33;3.15;;;1.90;;
71083;SDS011;58741;52.672;13.548;2023-04-15T14:01:59;1.95;;;1.60;;
71083;SDS011;58741;52.672;13.548;2023-04-15T14:04:24;2.85;;;1.85;;
71083;SDS011;58741;52.672;13.548;2023-04-15T14:06:50;6.50;;;3.92;;
71083;SDS011;58741;52.672;13.548;2023-04-15T14:09:16;5.47;;;2.53;;
71083;SDS011;58741;52.672;13.548;2023-04-15T14:11:41;3.80;;;2.50;;
71083;SDS011;58741;52.672;13.548;2023-04-15T14:14:07;3.65;;;2.40;;
71083;SDS011;58741;52.672;13.548;2023-04-15T14:16:32;4.10;;;2.25;;
71083;SDS011;58741;52.672;13.548;2023-04-15T14:18:58;2.45;;;2.03;;
71083;SDS011;58741;52.672;13.548;2023-04-15T14:21:24;3.03;;;2.20;;
71083;SDS011;58741;52.672;13.548;2023-04-15T14:23:52;4.13;;;1.95;;
71083;SDS011;58741;52.672;13.548;2023-04-15T14:26:18;4.75;;;2.63;;
71083;SDS011;58741;52.672;13.548;2023-04-15T14:28:43;3.33;;;1.95;;
71083;SDS011;58741;52.672;13.548;2023-04-15T14:31:09;2.05;;;1.75;;
71083;SDS011;58741;52.672;13.548;2023-04-15T14:33:35;2.95;;;2.05;;
71083;SDS011;58741;52.672;13.548;2023-04-15T14:36:00;4.68;;;2.30;;
71083;SDS011;58741;52.672;13.548;2023-04-15T14:38:26;2.78;;;2.50;;
71083;SDS011;58741;52.672;13.548;2023-04-15T14:40:52;4.15;;;2.72;;
71083;SDS011;58741;52.672;13.548;2023-04-15T14:43:17;3.13;;;2.42;;